WTB44J TNCM-MDSD
Flight info
| Callsign | WTB44J |
|---|---|
| Flight time | 1h 3m |
| Altitude | 34000 |
| Route | BOPAT2 GOUDA L577 ANTEX/N0373F180 L577 GOSUB GOSUB2G |
| Aircraft | A321/M-SDE3FGHIRWY/LB1 |
Departure
| Time | 2026-05-04 18:19 |
|---|---|
| Airport | Princess Juliana International Airport (TNCM) |
Arrival
| Time | 2026-05-04 19:22 |
|---|---|
| Airport | Las Américas International Airport (MDSD) |
| Time | Latitude | Longitude | Altitude | Speed | Heading |
|---|---|---|---|---|---|
| 2026-05-04 17:00 | 18.04337 | -63.11293 | 32 ft | 0 kts | 352° |
| 2026-05-04 17:02 | 18.04268 | -63.11555 | 28 ft | 0 kts | 320° |
| 2026-05-04 17:07 | 18.04222 | -63.11579 | 28 ft | 0 kts | 320° |
| 2026-05-04 18:13 | 18.04216 | -63.11573 | 28 ft | 4 kts | 314° |
| 2026-05-04 18:14 | 18.04202 | -63.11551 | 29 ft | 4 kts | 283° |
| 2026-05-04 18:14 | 18.04200 | -63.11524 | 29 ft | 4 kts | 261° |
| 2026-05-04 18:14 | 18.04207 | -63.11497 | 29 ft | 4 kts | 240° |
| 2026-05-04 18:15 | 18.04213 | -63.11486 | 29 ft | 0 kts | 231° |
| 2026-05-04 18:16 | 18.04205 | -63.11497 | 29 ft | 6 kts | 231° |
| 2026-05-04 18:16 | 18.04177 | -63.11534 | 15 ft | 13 kts | 231° |
| 2026-05-04 18:17 | 18.04055 | -63.11743 | 28 ft | 17 kts | 261° |
| 2026-05-04 18:17 | 18.04041 | -63.11852 | 28 ft | 9 kts | 262° |
| 2026-05-04 18:17 | 18.04039 | -63.11864 | 28 ft | 0 kts | 259° |
| 2026-05-04 18:18 | 18.04035 | -63.11881 | 28 ft | 6 kts | 253° |
| 2026-05-04 18:18 | 18.04001 | -63.11944 | 28 ft | 13 kts | 231° |
| 2026-05-04 18:18 | 18.03948 | -63.11920 | 27 ft | 14 kts | 71° |
| 2026-05-04 18:18 | 18.03971 | -63.11740 | 28 ft | 50 kts | 84° |
| 2026-05-04 18:19 | 18.04192 | -63.10158 | 87 ft | 153 kts | 82° |
| 2026-05-04 18:19 | 18.04243 | -63.09066 | 713 ft | 151 kts | 102° |
| 2026-05-04 18:19 | 18.03646 | -63.08161 | 1263 ft | 161 kts | 144° |
| 2026-05-04 18:20 | 18.02528 | -63.07710 | 1464 ft | 183 kts | 163° |
| 2026-05-04 18:20 | 18.01192 | -63.07489 | 1605 ft | 208 kts | 181° |
| 2026-05-04 18:20 | 17.99780 | -63.08110 | 1729 ft | 242 kts | 219° |
| 2026-05-04 18:20 | 17.98886 | -63.09716 | 1996 ft | 270 kts | 251° |
| 2026-05-04 18:21 | 17.98519 | -63.11660 | 2563 ft | 279 kts | 261° |
| 2026-05-04 18:21 | 17.98359 | -63.13730 | 3274 ft | 282 kts | 265° |
| 2026-05-04 18:21 | 17.98263 | -63.15800 | 3971 ft | 285 kts | 265° |
| 2026-05-04 18:21 | 17.98157 | -63.17881 | 4696 ft | 286 kts | 264° |
| 2026-05-04 18:22 | 17.98022 | -63.19952 | 5337 ft | 289 kts | 263° |
| 2026-05-04 18:22 | 17.97857 | -63.22066 | 6012 ft | 292 kts | 263° |
| 2026-05-04 18:22 | 17.97666 | -63.24198 | 6658 ft | 294 kts | 262° |
| 2026-05-04 18:22 | 17.97461 | -63.26343 | 7270 ft | 297 kts | 262° |
| 2026-05-04 18:23 | 17.97248 | -63.28504 | 7891 ft | 298 kts | 262° |
| 2026-05-04 18:23 | 17.97030 | -63.30675 | 8504 ft | 300 kts | 262° |
| 2026-05-04 18:23 | 17.96808 | -63.32856 | 9151 ft | 300 kts | 262° |
| 2026-05-04 18:23 | 17.96589 | -63.35031 | 9801 ft | 300 kts | 262° |
| 2026-05-04 18:24 | 17.96369 | -63.37228 | 10244 ft | 308 kts | 263° |
| 2026-05-04 18:24 | 17.96138 | -63.39537 | 10357 ft | 327 kts | 263° |
| 2026-05-04 18:24 | 17.95894 | -63.41973 | 10476 ft | 344 kts | 263° |
| 2026-05-04 18:24 | 17.95636 | -63.44532 | 10596 ft | 360 kts | 263° |
| 2026-05-04 18:25 | 17.95366 | -63.47205 | 10713 ft | 376 kts | 263° |
| 2026-05-04 18:25 | 17.95083 | -63.49988 | 10882 ft | 388 kts | 263° |
| 2026-05-04 18:25 | 17.94797 | -63.52827 | 11262 ft | 393 kts | 263° |
| 2026-05-04 18:25 | 17.94509 | -63.55691 | 11706 ft | 396 kts | 263° |
| 2026-05-04 18:26 | 17.94217 | -63.58581 | 12146 ft | 399 kts | 263° |
| 2026-05-04 18:26 | 17.93925 | -63.61493 | 12576 ft | 402 kts | 263° |
| 2026-05-04 18:26 | 17.93634 | -63.64425 | 13012 ft | 405 kts | 264° |
| 2026-05-04 18:26 | 17.93624 | -63.67392 | 13426 ft | 409 kts | 275° |
| 2026-05-04 18:27 | 17.94095 | -63.70347 | 13829 ft | 412 kts | 281° |
| 2026-05-04 18:27 | 17.94663 | -63.73307 | 14185 ft | 415 kts | 281° |
| 2026-05-04 18:27 | 17.95226 | -63.76280 | 14588 ft | 415 kts | 281° |
| 2026-05-04 18:27 | 17.95777 | -63.79221 | 14983 ft | 416 kts | 281° |
| 2026-05-04 18:28 | 17.96333 | -63.82194 | 15411 ft | 416 kts | 281° |
| 2026-05-04 18:28 | 17.96892 | -63.85177 | 15826 ft | 416 kts | 281° |
| 2026-05-04 18:28 | 17.97453 | -63.88155 | 16250 ft | 416 kts | 281° |
| 2026-05-04 18:28 | 17.98012 | -63.91145 | 16669 ft | 416 kts | 281° |
| 2026-05-04 18:29 | 17.98570 | -63.94130 | 17078 ft | 417 kts | 281° |
| 2026-05-04 18:29 | 17.99126 | -63.97117 | 17496 ft | 417 kts | 281° |
| 2026-05-04 18:29 | 17.99682 | -64.00110 | 17896 ft | 418 kts | 281° |
| 2026-05-04 18:29 | 18.00243 | -64.03105 | 18272 ft | 419 kts | 281° |
| 2026-05-04 18:30 | 18.01372 | -64.09140 | 18863 ft | 423 kts | 281° |
| 2026-05-04 18:30 | 18.01939 | -64.12178 | 19152 ft | 425 kts | 281° |
| 2026-05-04 18:30 | 18.02508 | -64.15234 | 19431 ft | 427 kts | 281° |
| 2026-05-04 18:31 | 18.03081 | -64.18309 | 19702 ft | 430 kts | 281° |
| 2026-05-04 18:31 | 18.03655 | -64.21401 | 19953 ft | 433 kts | 281° |
| 2026-05-04 18:31 | 18.04232 | -64.24518 | 20217 ft | 436 kts | 281° |
| 2026-05-04 18:31 | 18.04814 | -64.27662 | 20470 ft | 439 kts | 281° |
| 2026-05-04 18:32 | 18.05390 | -64.30778 | 20725 ft | 442 kts | 281° |
| 2026-05-04 18:32 | 18.05978 | -64.33954 | 20969 ft | 445 kts | 281° |
| 2026-05-04 18:32 | 18.06571 | -64.37161 | 21218 ft | 448 kts | 281° |
| 2026-05-04 18:32 | 18.07169 | -64.40382 | 21463 ft | 450 kts | 281° |
| 2026-05-04 18:33 | 18.07769 | -64.43620 | 21705 ft | 453 kts | 281° |
| 2026-05-04 18:33 | 18.08372 | -64.46885 | 21943 ft | 456 kts | 281° |
| 2026-05-04 18:33 | 18.08976 | -64.50163 | 22179 ft | 459 kts | 281° |
| 2026-05-04 18:33 | 18.09582 | -64.53464 | 22415 ft | 461 kts | 281° |
| 2026-05-04 18:34 | 18.10190 | -64.56786 | 22653 ft | 464 kts | 281° |
| 2026-05-04 18:34 | 18.10802 | -64.60124 | 22880 ft | 467 kts | 281° |
| 2026-05-04 18:34 | 18.11417 | -64.63487 | 23106 ft | 469 kts | 281° |
| 2026-05-04 18:34 | 18.12034 | -64.66867 | 23321 ft | 472 kts | 281° |
| 2026-05-04 18:35 | 18.12655 | -64.70263 | 23550 ft | 474 kts | 281° |
| 2026-05-04 18:35 | 18.13281 | -64.73672 | 23745 ft | 477 kts | 281° |
| 2026-05-04 18:35 | 18.13911 | -64.77099 | 23949 ft | 478 kts | 281° |
| 2026-05-04 18:35 | 18.14539 | -64.80537 | 24179 ft | 479 kts | 281° |
| 2026-05-04 18:36 | 18.15165 | -64.83975 | 24399 ft | 479 kts | 281° |
| 2026-05-04 18:36 | 18.15791 | -64.87418 | 24632 ft | 480 kts | 281° |
| 2026-05-04 18:36 | 18.16416 | -64.90867 | 24863 ft | 481 kts | 281° |
| 2026-05-04 18:36 | 18.17041 | -64.94324 | 25095 ft | 481 kts | 281° |
| 2026-05-04 18:37 | 18.17660 | -64.97785 | 25328 ft | 482 kts | 281° |
| 2026-05-04 18:37 | 18.18189 | -65.01267 | 25562 ft | 483 kts | 278° |
| 2026-05-04 18:37 | 18.18611 | -65.04772 | 25793 ft | 484 kts | 277° |
| 2026-05-04 18:37 | 18.18958 | -65.08292 | 26021 ft | 484 kts | 276° |
| 2026-05-04 18:38 | 18.19273 | -65.11818 | 26235 ft | 485 kts | 276° |
| 2026-05-04 18:38 | 18.19585 | -65.15295 | 26531 ft | 483 kts | 276° |
| 2026-05-04 18:38 | 18.19920 | -65.18807 | 26843 ft | 481 kts | 277° |
| 2026-05-04 18:38 | 18.20276 | -65.22297 | 27155 ft | 479 kts | 277° |
| 2026-05-04 18:39 | 18.20650 | -65.25778 | 27467 ft | 478 kts | 277° |
| 2026-05-04 18:39 | 18.21033 | -65.29239 | 27772 ft | 476 kts | 278° |
| 2026-05-04 18:39 | 18.21418 | -65.32694 | 28065 ft | 475 kts | 278° |
| 2026-05-04 18:39 | 18.21797 | -65.36143 | 28349 ft | 474 kts | 277° |
| 2026-05-04 18:40 | 18.22166 | -65.39582 | 28642 ft | 473 kts | 277° |
| 2026-05-04 18:40 | 18.22527 | -65.43012 | 28935 ft | 472 kts | 277° |
| 2026-05-04 18:40 | 18.22885 | -65.46435 | 29235 ft | 470 kts | 277° |
| 2026-05-04 18:40 | 18.23240 | -65.49854 | 29527 ft | 469 kts | 277° |
| 2026-05-04 18:41 | 18.23595 | -65.53259 | 29820 ft | 468 kts | 277° |
| 2026-05-04 18:41 | 18.23950 | -65.56652 | 30104 ft | 467 kts | 278° |
| 2026-05-04 18:41 | 18.24305 | -65.60036 | 30352 ft | 466 kts | 278° |
| 2026-05-04 18:41 | 18.24658 | -65.63423 | 30588 ft | 464 kts | 277° |
| 2026-05-04 18:42 | 18.25009 | -65.66796 | 30831 ft | 463 kts | 277° |
| 2026-05-04 18:42 | 18.25359 | -65.70160 | 31071 ft | 462 kts | 277° |
| 2026-05-04 18:42 | 18.25708 | -65.73513 | 31319 ft | 461 kts | 277° |
| 2026-05-04 18:42 | 18.26055 | -65.76860 | 31539 ft | 460 kts | 277° |
| 2026-05-04 18:43 | 18.26403 | -65.80205 | 31770 ft | 459 kts | 277° |
| 2026-05-04 18:43 | 18.26752 | -65.83538 | 31987 ft | 458 kts | 277° |
| 2026-05-04 18:43 | 18.27101 | -65.86870 | 32227 ft | 458 kts | 277° |
| 2026-05-04 18:43 | 18.27446 | -65.90195 | 32476 ft | 457 kts | 277° |
| 2026-05-04 18:44 | 18.27787 | -65.93513 | 32703 ft | 456 kts | 277° |
| 2026-05-04 18:44 | 18.28011 | -65.95706 | 32866 ft | 456 kts | 276° |
| 2026-05-04 18:44 | 18.28466 | -66.00146 | 33187 ft | 455 kts | 276° |
| 2026-05-04 18:44 | 18.28808 | -66.03452 | 33417 ft | 454 kts | 276° |
| 2026-05-04 18:45 | 18.29149 | -66.06754 | 33646 ft | 454 kts | 276° |
| 2026-05-04 18:45 | 18.29488 | -66.10048 | 33872 ft | 453 kts | 276° |
| 2026-05-04 18:45 | 18.29824 | -66.13346 | 34014 ft | 454 kts | 276° |
| 2026-05-04 18:46 | 18.30491 | -66.19892 | 34041 ft | 452 kts | 276° |
| 2026-05-04 18:46 | 18.31157 | -66.26479 | 34044 ft | 452 kts | 275° |
| 2026-05-04 18:47 | 18.31820 | -66.33054 | 34043 ft | 452 kts | 275° |
| 2026-05-04 18:47 | 18.32479 | -66.39639 | 34052 ft | 452 kts | 275° |
| 2026-05-04 18:48 | 18.33134 | -66.46224 | 34039 ft | 452 kts | 275° |
| 2026-05-04 18:48 | 18.33793 | -66.52804 | 34036 ft | 452 kts | 275° |
| 2026-05-04 18:49 | 18.34462 | -66.59386 | 34037 ft | 452 kts | 275° |
| 2026-05-04 18:49 | 18.35116 | -66.65971 | 34036 ft | 453 kts | 275° |
| 2026-05-04 18:50 | 18.35761 | -66.72531 | 34041 ft | 453 kts | 275° |
| 2026-05-04 18:50 | 18.36408 | -66.79133 | 34034 ft | 454 kts | 275° |
| 2026-05-04 18:51 | 18.37063 | -66.85745 | 34044 ft | 454 kts | 275° |
| 2026-05-04 18:51 | 18.37716 | -66.92366 | 34044 ft | 454 kts | 275° |
| 2026-05-04 18:52 | 18.38359 | -66.98987 | 34040 ft | 454 kts | 275° |
| 2026-05-04 18:52 | 18.38997 | -67.05597 | 34037 ft | 454 kts | 275° |
| 2026-05-04 18:53 | 18.39629 | -67.12172 | 34033 ft | 454 kts | 275° |
| 2026-05-04 18:53 | 18.40269 | -67.18790 | 34031 ft | 454 kts | 275° |
| 2026-05-04 18:54 | 18.40917 | -67.25413 | 34026 ft | 455 kts | 275° |
| 2026-05-04 18:54 | 18.41562 | -67.32047 | 34026 ft | 456 kts | 275° |
| 2026-05-04 18:55 | 18.42195 | -67.38689 | 34040 ft | 456 kts | 275° |
| 2026-05-04 18:55 | 18.43125 | -67.48663 | 34036 ft | 456 kts | 275° |
| 2026-05-04 18:56 | 18.43756 | -67.55314 | 34036 ft | 456 kts | 275° |
| 2026-05-04 18:56 | 18.44394 | -67.61969 | 33953 ft | 457 kts | 275° |
| 2026-05-04 18:57 | 18.44711 | -67.65297 | 33692 ft | 456 kts | 275° |
| 2026-05-04 18:57 | 18.45022 | -67.68616 | 33442 ft | 456 kts | 275° |
| 2026-05-04 18:57 | 18.45330 | -67.71938 | 33190 ft | 456 kts | 275° |
| 2026-05-04 18:57 | 18.45638 | -67.75263 | 32943 ft | 456 kts | 275° |
| 2026-05-04 18:58 | 18.45946 | -67.78596 | 32365 ft | 458 kts | 275° |
| 2026-05-04 18:58 | 18.46256 | -67.81958 | 31439 ft | 464 kts | 276° |
| 2026-05-04 18:58 | 18.46570 | -67.85352 | 30571 ft | 468 kts | 276° |
| 2026-05-04 18:58 | 18.46889 | -67.88788 | 29471 ft | 474 kts | 276° |
| 2026-05-04 18:59 | 18.47216 | -67.92260 | 28473 ft | 477 kts | 276° |
| 2026-05-04 18:59 | 18.47540 | -67.95744 | 27450 ft | 479 kts | 276° |
| 2026-05-04 18:59 | 18.47847 | -67.99204 | 26597 ft | 480 kts | 274° |
| 2026-05-04 18:59 | 18.47857 | -68.02688 | 26263 ft | 473 kts | 268° |
| 2026-05-04 19:00 | 18.47773 | -68.06154 | 26072 ft | 473 kts | 268° |
| 2026-05-04 19:00 | 18.47702 | -68.09605 | 26028 ft | 473 kts | 268° |
| 2026-05-04 19:00 | 18.47639 | -68.13076 | 26038 ft | 473 kts | 269° |
| 2026-05-04 19:00 | 18.47578 | -68.16550 | 26037 ft | 473 kts | 269° |
| 2026-05-04 19:01 | 18.47512 | -68.20013 | 26037 ft | 473 kts | 268° |
| 2026-05-04 19:01 | 18.47442 | -68.23477 | 26039 ft | 473 kts | 268° |
| 2026-05-04 19:01 | 18.47370 | -68.26938 | 26040 ft | 473 kts | 268° |
| 2026-05-04 19:01 | 18.47295 | -68.30400 | 26041 ft | 473 kts | 268° |
| 2026-05-04 19:02 | 18.47217 | -68.33860 | 26042 ft | 472 kts | 268° |
| 2026-05-04 19:02 | 18.47136 | -68.37312 | 26040 ft | 472 kts | 268° |
| 2026-05-04 19:02 | 18.47054 | -68.40766 | 26043 ft | 472 kts | 268° |
| 2026-05-04 19:02 | 18.46972 | -68.44222 | 26042 ft | 472 kts | 268° |
| 2026-05-04 19:03 | 18.46891 | -68.47673 | 25799 ft | 471 kts | 268° |
| 2026-05-04 19:03 | 18.46809 | -68.51140 | 24830 ft | 475 kts | 268° |
| 2026-05-04 19:03 | 18.46726 | -68.54584 | 23629 ft | 467 kts | 267° |
| 2026-05-04 19:03 | 18.46650 | -68.57927 | 22993 ft | 442 kts | 267° |
| 2026-05-04 19:04 | 18.46581 | -68.61070 | 22111 ft | 424 kts | 267° |
| 2026-05-04 19:04 | 18.46509 | -68.64108 | 20989 ft | 417 kts | 268° |
| 2026-05-04 19:04 | 18.46436 | -68.67142 | 20385 ft | 414 kts | 268° |
| 2026-05-04 19:04 | 18.46364 | -68.70134 | 19813 ft | 399 kts | 268° |
| 2026-05-04 19:05 | 18.46299 | -68.72980 | 19264 ft | 379 kts | 268° |
| 2026-05-04 19:05 | 18.46237 | -68.75686 | 18724 ft | 361 kts | 268° |
| 2026-05-04 19:05 | 18.46173 | -68.78272 | 18191 ft | 346 kts | 269° |
| 2026-05-04 19:05 | 18.46104 | -68.80758 | 17579 ft | 333 kts | 268° |
| 2026-05-04 19:06 | 18.46051 | -68.82385 | 17175 ft | 325 kts | 268° |
| 2026-05-04 19:06 | 18.45966 | -68.84720 | 16574 ft | 315 kts | 268° |
| 2026-05-04 19:06 | 18.45880 | -68.87015 | 16004 ft | 312 kts | 268° |
| 2026-05-04 19:06 | 18.45795 | -68.89286 | 15431 ft | 309 kts | 268° |
| 2026-05-04 19:07 | 18.45711 | -68.91543 | 14884 ft | 311 kts | 268° |
| 2026-05-04 19:07 | 18.45627 | -68.93811 | 14334 ft | 316 kts | 267° |
| 2026-05-04 19:07 | 18.45542 | -68.96147 | 13789 ft | 322 kts | 267° |
| 2026-05-04 19:07 | 18.45460 | -68.98512 | 13347 ft | 322 kts | 267° |
| 2026-05-04 19:08 | 18.45379 | -69.00848 | 13095 ft | 316 kts | 267° |
| 2026-05-04 19:08 | 18.45300 | -69.03127 | 12838 ft | 310 kts | 267° |
| 2026-05-04 19:08 | 18.45222 | -69.05379 | 12585 ft | 306 kts | 266° |
| 2026-05-04 19:08 | 18.45144 | -69.07619 | 12352 ft | 305 kts | 266° |
| 2026-05-04 19:09 | 18.45066 | -69.09855 | 12164 ft | 306 kts | 266° |
| 2026-05-04 19:09 | 18.44984 | -69.12097 | 11883 ft | 305 kts | 266° |
| 2026-05-04 19:09 | 18.44901 | -69.14325 | 11590 ft | 304 kts | 266° |
| 2026-05-04 19:09 | 18.44820 | -69.16550 | 11294 ft | 304 kts | 266° |
| 2026-05-04 19:10 | 18.44738 | -69.18769 | 11002 ft | 303 kts | 266° |
| 2026-05-04 19:10 | 18.44655 | -69.20986 | 10755 ft | 302 kts | 265° |
| 2026-05-04 19:10 | 18.44574 | -69.23191 | 10628 ft | 299 kts | 266° |
| 2026-05-04 19:10 | 18.44497 | -69.25343 | 10519 ft | 289 kts | 265° |
| 2026-05-04 19:11 | 18.44429 | -69.27422 | 10393 ft | 280 kts | 266° |
| 2026-05-04 19:11 | 18.44387 | -69.29438 | 10259 ft | 271 kts | 266° |
| 2026-05-04 19:11 | 18.44359 | -69.31403 | 10010 ft | 267 kts | 267° |
| 2026-05-04 19:11 | 18.44334 | -69.33356 | 9684 ft | 266 kts | 267° |
| 2026-05-04 19:12 | 18.44308 | -69.35300 | 9343 ft | 265 kts | 267° |
| 2026-05-04 19:12 | 18.44249 | -69.39226 | 8837 ft | 274 kts | 267° |
| 2026-05-04 19:12 | 18.44218 | -69.41242 | 8586 ft | 275 kts | 269° |
| 2026-05-04 19:13 | 18.44528 | -69.43228 | 8339 ft | 277 kts | 290° |
| 2026-05-04 19:13 | 18.45495 | -69.44971 | 8085 ft | 278 kts | 312° |
| 2026-05-04 19:13 | 18.46942 | -69.46308 | 7834 ft | 277 kts | 322° |
| 2026-05-04 19:13 | 18.48455 | -69.47574 | 7575 ft | 277 kts | 322° |
| 2026-05-04 19:14 | 18.49954 | -69.48832 | 7320 ft | 275 kts | 322° |
| 2026-05-04 19:14 | 18.51447 | -69.50088 | 7076 ft | 274 kts | 322° |
| 2026-05-04 19:14 | 18.52932 | -69.51343 | 6823 ft | 273 kts | 322° |
| 2026-05-04 19:14 | 18.54414 | -69.52594 | 6556 ft | 273 kts | 322° |
| 2026-05-04 19:15 | 18.55899 | -69.53845 | 6304 ft | 273 kts | 322° |
| 2026-05-04 19:15 | 18.57359 | -69.55074 | 6050 ft | 272 kts | 322° |
| 2026-05-04 19:15 | 18.58830 | -69.56316 | 5792 ft | 271 kts | 322° |
| 2026-05-04 19:15 | 18.60299 | -69.57555 | 5534 ft | 271 kts | 322° |
| 2026-05-04 19:16 | 18.61771 | -69.58795 | 5297 ft | 270 kts | 322° |
| 2026-05-04 19:16 | 18.63238 | -69.60035 | 5055 ft | 270 kts | 321° |
| 2026-05-04 19:16 | 18.64671 | -69.61306 | 4799 ft | 268 kts | 311° |
| 2026-05-04 19:16 | 18.65521 | -69.62996 | 4600 ft | 258 kts | 278° |
| 2026-05-04 19:17 | 18.65455 | -69.64816 | 4336 ft | 246 kts | 247° |
| 2026-05-04 19:17 | 18.64636 | -69.66344 | 4082 ft | 238 kts | 231° |
| 2026-05-04 19:17 | 18.63697 | -69.67776 | 3837 ft | 236 kts | 231° |
| 2026-05-04 19:17 | 18.62780 | -69.69181 | 3687 ft | 228 kts | 232° |
| 2026-05-04 19:18 | 18.61896 | -69.70539 | 3444 ft | 223 kts | 231° |
| 2026-05-04 19:18 | 18.60993 | -69.71847 | 3199 ft | 217 kts | 222° |
| 2026-05-04 19:18 | 18.59755 | -69.72619 | 3003 ft | 203 kts | 192° |
| 2026-05-04 19:18 | 18.58384 | -69.72618 | 2767 ft | 197 kts | 163° |
| 2026-05-04 19:19 | 18.57098 | -69.72149 | 2543 ft | 192 kts | 160° |
| 2026-05-04 19:19 | 18.55872 | -69.71694 | 2352 ft | 182 kts | 160° |
| 2026-05-04 19:19 | 18.54686 | -69.71254 | 2151 ft | 180 kts | 161° |
| 2026-05-04 19:19 | 18.53528 | -69.70824 | 1976 ft | 174 kts | 161° |
| 2026-05-04 19:20 | 18.52416 | -69.70411 | 1743 ft | 167 kts | 161° |
| 2026-05-04 19:20 | 18.51334 | -69.70008 | 1514 ft | 164 kts | 160° |
| 2026-05-04 19:20 | 18.50306 | -69.69624 | 1290 ft | 151 kts | 161° |
| 2026-05-04 19:20 | 18.49337 | -69.69260 | 1092 ft | 146 kts | 162° |
| 2026-05-04 19:21 | 18.48380 | -69.68901 | 913 ft | 145 kts | 162° |
| 2026-05-04 19:21 | 18.47452 | -69.68553 | 726 ft | 143 kts | 161° |
| 2026-05-04 19:21 | 18.46500 | -69.68199 | 556 ft | 143 kts | 160° |
| 2026-05-04 19:21 | 18.45562 | -69.67858 | 299 ft | 142 kts | 159° |
| 2026-05-04 19:22 | 18.44637 | -69.67511 | 156 ft | 144 kts | 160° |
| 2026-05-04 19:22 | 18.43719 | -69.67164 | 68 ft | 131 kts | 160° |
| 2026-05-04 19:22 | 18.43072 | -69.66917 | 67 ft | 56 kts | 159° |
| 2026-05-04 19:22 | 18.42901 | -69.66857 | 65 ft | 19 kts | 166° |
| 2026-05-04 19:23 | 18.42737 | -69.66807 | 64 ft | 29 kts | 162° |
| 2026-05-04 19:23 | 18.42547 | -69.66739 | 68 ft | 29 kts | 160° |
| 2026-05-04 19:23 | 18.42362 | -69.66667 | 65 ft | 27 kts | 161° |
| 2026-05-04 19:23 | 18.42218 | -69.66696 | 63 ft | 20 kts | 260° |
| 2026-05-04 19:24 | 18.42265 | -69.66819 | 61 ft | 18 kts | 306° |
| 2026-05-04 19:24 | 18.42371 | -69.66873 | 67 ft | 16 kts | 340° |
| 2026-05-04 19:24 | 18.42473 | -69.66911 | 62 ft | 15 kts | 340° |
| 2026-05-04 19:24 | 18.42593 | -69.66953 | 66 ft | 23 kts | 341° |
| 2026-05-04 19:25 | 18.42770 | -69.67019 | 68 ft | 29 kts | 341° |
| 2026-05-04 19:25 | 18.42927 | -69.67080 | 60 ft | 15 kts | 327° |
| 2026-05-04 19:25 | 18.42954 | -69.67188 | 64 ft | 18 kts | 272° |
| 2026-05-04 19:25 | 18.42947 | -69.67315 | 65 ft | 15 kts | 240° |
| 2026-05-04 19:26 | 18.42866 | -69.67337 | 65 ft | 11 kts | 183° |
| 2026-05-04 19:26 | 18.42812 | -69.67382 | 63 ft | 10 kts | 252° |
| 2026-05-04 19:26 | 18.42795 | -69.67445 | 64 ft | 9 kts | 253° |
| 2026-05-04 19:26 | 18.42783 | -69.67509 | 62 ft | 10 kts | 265° |
| 2026-05-04 19:27 | 18.42806 | -69.67548 | 67 ft | 5 kts | 3° |
| 2026-05-04 19:27 | 18.42832 | -69.67534 | 68 ft | 4 kts | 33° |
| 2026-05-04 19:27 | 18.42847 | -69.67524 | 63 ft | 0 kts | 33° |